No particular awareness of the weather is required.    There are no Weather-warnings


Meteo18 Weather Cam more information Meteo18 Weather Cam


Thunder radar more information blitzortung!


Rain radar more information rain snow radar


Visit our other weather sites:

Template documentation
and downloads

And another site



Weather Underground History page Text

Daily Summary for April 8, 2017 Units:  English    Metric   Both
« Previous Day
Next Day »
Daily Weekly Monthly Yearly Custom
  High: Low: Average:
Temperature: TemperatureC °F 7.0 °F 14.5 °F
Dew Point: DewpointC °F 5.1 °F 7.9 °F
Humidity: Humidity % 42 % 66 %
Wind Speed: WindSpeedKMH mph 0.0 mph 3.3 mph
Wind Gust: WindSpeedGustKMH mph - -
Wind:- - ESE
Pressure: PressurehPa in 1021.6 in -
Precipitation: 0.0 in    
Historical Graphs
 
 
Tabular Data for April 8, 2017
Time Temperature Dew Point Pressure Wind Wind Speed Wind Gust Humidity Rainfall Rate (Hourly)
TemperatureC °F DewpointC °F PressurehPa in Calm     Humidity % HourlyPrecipMM in
00:02 10.6 °F 6.4 °F 1024.9 in WNW 1.6 mph 6.4 mph 75 % 0.0 in
00:07 10.5 °F 6.4 °F 1024.9 in Calm   6.4 mph 76 % 0.0 in
00:12 10.4 °F 6.4 °F 1024.9 in NNW 1.6 mph 3.2 mph 76 % 0.0 in
00:17 10.4 °F 6.4 °F 1024.9 in NNW 1.6 mph 3.2 mph 76 % 0.0 in
00:22 10.4 °F 6.4 °F 1024.9 in NNE 1.6 mph 6.4 mph 76 % 0.0 in
00:27 10.3 °F 6.4 °F 1024.9 in North 3.2 mph 6.4 mph 77 % 0.0 in
00:32 10.3 °F 6.4 °F 1024.9 in NNE 4.8 mph 6.4 mph 77 % 0.0 in
00:37 10.2 °F 6.3 °F 1024.9 in North 3.2 mph 8.0 mph 77 % 0.0 in
00:42 10.2 °F 6.3 °F 1024.9 in North 1.6 mph 8.0 mph 77 % 0.0 in
00:47 10.1 °F 6.4 °F 1024.9 in NNW 1.6 mph 8.0 mph 78 % 0.0 in
00:52 10.1 °F 6.4 °F 1024.9 in North 1.6 mph 6.4 mph 78 % 0.0 in
00:57 10.0 °F 6.3 °F 1024.9 in NNW 1.6 mph 6.4 mph 78 % 0.0 in
01:02 9.9 °F 6.2 °F 1024.9 in NNW 3.2 mph 6.4 mph 78 % 0.0 in
01:07 9.8 °F 6.3 °F 1024.9 in North 3.2 mph 6.4 mph 79 % 0.0 in
01:12 9.8 °F 6.3 °F 1024.9 in Calm   6.4 mph 79 % 0.0 in
01:17 9.8 °F 6.3 °F 1024.9 in NNW 3.2 mph 6.4 mph 79 % 0.0 in
01:22 9.7 °F 6.2 °F 1024.9 in NNW 1.6 mph 8.0 mph 79 % 0.0 in
01:27 9.7 °F 6.2 °F 1024.9 in North 4.8 mph 8.0 mph 79 % 0.0 in
01:32 9.6 °F 6.3 °F 1024.9 in NNW 1.6 mph 6.4 mph 80 % 0.0 in
01:37 9.5 °F 6.2 °F 1024.9 in NE 1.6 mph 6.4 mph 80 % 0.0 in
01:42 9.5 °F 6.2 °F 1024.9 in Calm   6.4 mph 80 % 0.0 in
01:52 9.3 °F 6.0 °F 1024.9 in Calm   4.8 mph 80 % 0.0 in
01:57 9.2 °F 6.1 °F 1024.9 in Calm   6.4 mph 81 % 0.0 in
02:02 9.2 °F 6.1 °F 1024.6 in North 3.2 mph 6.4 mph 81 % 0.0 in
02:07 9.3 °F 6.2 °F 1024.6 in Calm   6.4 mph 81 % 0.0 in
02:12 9.2 °F 6.1 °F 1024.6 in NNW 1.6 mph 6.4 mph 81 % 0.0 in
02:17 9.2 °F 6.1 °F 1024.6 in Calm   6.4 mph 81 % 0.0 in
02:22 9.2 °F 6.1 °F 1024.6 in North 1.6 mph 6.4 mph 81 % 0.0 in
02:32 9.3 °F 6.2 °F 1024.3 in Calm   6.4 mph 81 % 0.0 in
02:37 9.4 °F 6.3 °F 1024.3 in North 3.2 mph 8.0 mph 81 % 0.0 in
02:42 9.4 °F 6.3 °F 1024.3 in NNW 6.4 mph 9.7 mph 81 % 0.0 in
02:47 9.4 °F 6.3 °F 1024.3 in North 3.2 mph 9.7 mph 81 % 0.0 in
02:52 9.4 °F 6.3 °F 1024.3 in North 3.2 mph 11.3 mph 81 % 0.0 in
02:57 9.4 °F 6.3 °F 1024.3 in NNW 3.2 mph 11.3 mph 81 % 0.0 in
03:02 9.3 °F 6.2 °F 1024.3 in NW 1.6 mph 11.3 mph 81 % 0.0 in
03:07 9.2 °F 6.3 °F 1024.3 in Calm   9.7 mph 82 % 0.0 in
03:12 8.9 °F 5.8 °F 1024.3 in Calm   6.4 mph 81 % 0.0 in
03:17 8.8 °F 6.1 °F 1024.3 in Calm   6.4 mph 83 % 0.0 in
03:22 8.8 °F 6.1 °F 1024.3 in North 1.6 mph 4.8 mph 83 % 0.0 in
03:27 8.9 °F 6.2 °F 1024.3 in Calm   3.2 mph 83 % 0.0 in
03:32 8.8 °F 6.1 °F 1024.3 in NNE 3.2 mph 4.8 mph 83 % 0.0 in
03:37 8.8 °F 6.1 °F 1024.3 in NNE 4.8 mph 4.8 mph 83 % 0.0 in
03:42 9.2 °F 6.5 °F 1024.3 in NNE 4.8 mph 8.0 mph 83 % 0.0 in
03:47 9.4 °F 6.5 °F 1024.3 in ENE 1.6 mph 8.0 mph 82 % 0.0 in
03:52 9.4 °F 6.3 °F 1024.3 in Calm   8.0 mph 81 % 0.0 in
03:57 9.2 °F 6.1 °F 1024.3 in ENE 1.6 mph 6.4 mph 81 % 0.0 in
04:02 9.1 °F 6.2 °F 1023.9 in Calm   3.2 mph 82 % 0.0 in
04:07 8.9 °F 6.0 °F 1023.9 in NNE 1.6 mph 1.6 mph 82 % 0.0 in
04:12 8.7 °F 5.8 °F 1023.9 in Calm   1.6 mph 82 % 0.0 in
04:17 8.3 °F 5.6 °F 1023.9 in WNW 1.6 mph 1.6 mph 83 % 0.0 in
04:22 8.3 °F 5.9 °F 1023.9 in NW 3.2 mph 3.2 mph 85 % 0.0 in
04:27 8.6 °F 6.2 °F 1023.9 in Calm   3.2 mph 85 % 0.0 in
04:32 8.8 °F 6.2 °F 1023.9 in Calm   3.2 mph 84 % 0.0 in
04:37 8.7 °F 6.0 °F 1023.9 in Calm   3.2 mph 83 % 0.0 in
04:42 8.7 °F 6.1 °F 1023.9 in Calm   1.6 mph 84 % 0.0 in
04:47 8.8 °F 6.2 °F 1023.9 in NNW 1.6 mph 1.6 mph 84 % 0.0 in
04:52 8.8 °F 6.1 °F 1023.9 in NNW 1.6 mph 3.2 mph 83 % 0.0 in
04:57 8.9 °F 6.2 °F 1023.9 in North 1.6 mph 3.2 mph 83 % 0.0 in
05:02 8.9 °F 6.2 °F 1023.9 in NNW 1.6 mph 3.2 mph 83 % 0.0 in
05:07 8.7 °F 5.8 °F 1023.9 in NNW 1.6 mph 4.8 mph 82 % 0.0 in
05:12 8.6 °F 5.9 °F 1023.9 in Calm   4.8 mph 83 % 0.0 in
05:17 8.5 °F 5.8 °F 1023.6 in NW 1.6 mph 4.8 mph 83 % 0.0 in
05:22 8.3 °F 5.8 °F 1023.9 in NNW 1.6 mph 4.8 mph 84 % 0.0 in
05:42 7.9 °F 5.5 °F 1023.6 in Calm   4.8 mph 85 % 0.0 in
05:47 7.8 °F 5.6 °F 1023.6 in NNW 3.2 mph 4.8 mph 86 % 0.0 in
05:52 7.8 °F 5.6 °F 1023.6 in NNW 1.6 mph 4.8 mph 86 % 0.0 in
05:57 7.8 °F 5.6 °F 1023.6 in North 1.6 mph 3.2 mph 86 % 0.0 in
06:02 7.8 °F 5.6 °F 1023.6 in NNE 1.6 mph 3.2 mph 86 % 0.0 in
06:12 7.8 °F 5.6 °F 1023.6 in North 1.6 mph 4.8 mph 86 % 0.0 in
06:17 7.7 °F 5.5 °F 1023.6 in Calm   4.8 mph 86 % 0.0 in
06:22 7.7 °F 5.5 °F 1023.6 in NNW 4.8 mph 4.8 mph 86 % 0.0 in
06:32 7.7 °F 5.7 °F 1023.6 in North 1.6 mph 4.8 mph 87 % 0.0 in
06:37 7.7 °F 5.7 °F 1023.6 in Calm   4.8 mph 87 % 0.0 in
06:42 7.7 °F 5.7 °F 1023.6 in NNW 1.6 mph 4.8 mph 87 % 0.0 in
06:47 7.7 °F 5.7 °F 1023.6 in Calm   4.8 mph 87 % 0.0 in
06:52 7.7 °F 5.7 °F 1023.6 in North 3.2 mph 4.8 mph 87 % 0.0 in
06:57 7.7 °F 5.7 °F 1023.6 in North 1.6 mph 3.2 mph 87 % 0.0 in
07:02 7.6 °F 5.6 °F 1023.6 in Calm   3.2 mph 87 % 0.0 in
07:12 7.5 °F 5.5 °F 1023.6 in Calm   3.2 mph 87 % 0.0 in
07:17 7.3 °F 5.3 °F 1023.6 in Calm   3.2 mph 87 % 0.0 in
07:22 7.1 °F 5.1 °F 1023.6 in Calm   3.2 mph 87 % 0.0 in
07:27 7.1 °F 5.2 °F 1023.6 in Calm   1.6 mph 88 % 0.0 in
07:32 7.0 °F 5.1 °F 1023.6 in Calm   1.6 mph 88 % 0.0 in
07:37 7.1 °F 5.4 °F 1023.6 in Calm     89 % 0.0 in
07:42 7.2 °F 5.5 °F 1023.6 in Calm     89 % 0.0 in
07:47 7.3 °F 5.6 °F 1023.9 in Calm     89 % 0.0 in
07:52 7.5 °F 5.6 °F 1023.9 in Calm     88 % 0.0 in
07:57 7.8 °F 5.9 °F 1023.9 in NE 4.8 mph 9.7 mph 88 % 0.0 in
08:02 8.2 °F 6.2 °F 1023.9 in NE 1.6 mph 9.7 mph 87 % 0.0 in
08:12 8.8 °F 6.4 °F 1023.9 in NNE 3.2 mph 9.7 mph 85 % 0.0 in
08:17 9.0 °F 6.4 °F 1023.9 in NE 4.8 mph 11.3 mph 84 % 0.0 in
08:22 9.2 °F 6.6 °F 1023.9 in NNE 4.8 mph 11.3 mph 84 % 0.0 in
08:27 9.4 °F 6.7 °F 1023.9 in Calm   11.3 mph 83 % 0.0 in
08:32 9.6 °F 6.9 °F 1023.9 in NNE 3.2 mph 11.3 mph 83 % 0.0 in
08:37 9.6 °F 6.7 °F 1023.9 in NE 3.2 mph 8.0 mph 82 % 0.0 in
08:42 9.7 °F 6.8 °F 1023.9 in NNE 6.4 mph 9.7 mph 82 % 0.0 in
08:47 9.7 °F 6.8 °F 1024.3 in ENE 6.4 mph 9.7 mph 82 % 0.0 in
08:52 9.9 °F 7.0 °F 1023.9 in NE 4.8 mph 11.3 mph 82 % 0.0 in
08:57 10.2 °F 7.3 °F 1024.3 in NE 6.4 mph 11.3 mph 82 % 0.0 in
09:02 10.3 °F 7.4 °F 1024.3 in NE 3.2 mph 11.3 mph 82 % 0.0 in
09:07 10.6 °F 7.7 °F 1024.3 in NNE 3.2 mph 9.7 mph 82 % 0.0 in
09:12 10.7 °F 7.4 °F 1024.3 in NE 6.4 mph 12.9 mph 80 % 0.0 in
09:17 10.8 °F 7.5 °F 1024.3 in NE 1.6 mph 12.9 mph 80 % 0.0 in
09:22 10.9 °F 7.6 °F 1024.3 in North 4.8 mph 12.9 mph 80 % 0.0 in
09:27 11.1 °F 7.6 °F 1023.9 in NNE 4.8 mph 11.3 mph 79 % 0.0 in
09:32 11.1 °F 7.4 °F 1024.3 in NNE 1.6 mph 11.3 mph 78 % 0.0 in
09:37 11.2 °F 7.5 °F 1024.3 in NE 3.2 mph 8.0 mph 78 % 0.0 in
09:42 11.3 °F 7.6 °F 1024.3 in North 1.6 mph 9.7 mph 78 % 0.0 in
09:47 11.6 °F 7.9 °F 1024.3 in East 3.2 mph 9.7 mph 78 % 0.0 in
09:52 11.8 °F 8.1 °F 1024.3 in ESE 3.2 mph 8.0 mph 78 % 0.0 in
09:57 12.0 °F 7.9 °F 1024.3 in ENE 3.2 mph 8.0 mph 76 % 0.0 in
10:02 12.0 °F 7.9 °F 1024.3 in East 4.8 mph 8.0 mph 76 % 0.0 in
10:07 12.3 °F 8.2 °F 1024.3 in ENE 4.8 mph 9.7 mph 76 % 0.0 in
10:12 12.6 °F 8.5 °F 1024.3 in East 1.6 mph 9.7 mph 76 % 0.0 in
10:17 12.8 °F 8.5 °F 1024.3 in Calm   8.0 mph 75 % 0.0 in
10:22 13.1 °F 8.6 °F 1024.3 in NNE 3.2 mph 8.0 mph 74 % 0.0 in
10:32 13.2 °F 8.3 °F 1024.3 in ENE 4.8 mph 8.0 mph 72 % 0.0 in
10:42 13.6 °F 8.9 °F 1024.3 in Calm   9.7 mph 73 % 0.0 in
10:47 13.7 °F 8.7 °F 1024.3 in ENE 6.4 mph 9.7 mph 72 % 0.0 in
10:52 13.8 °F 8.8 °F 1024.3 in Calm   8.0 mph 72 % 0.0 in
10:57 14.2 °F 9.0 °F 1024.3 in ENE 3.2 mph 8.0 mph 71 % 0.0 in
11:02 14.3 °F 9.1 °F 1024.3 in NNE 1.6 mph 8.0 mph 71 % 0.0 in
11:07 14.6 °F 9.0 °F 1024.3 in ENE 1.6 mph 8.0 mph 69 % 0.0 in
11:12 14.7 °F 9.3 °F 1024.3 in NNE 4.8 mph 9.7 mph 70 % 0.0 in
11:17 14.9 °F 9.3 °F 1024.3 in ESE 4.8 mph 9.7 mph 69 % 0.0 in
11:22 15.0 °F 9.1 °F 1024.3 in NE 3.2 mph 9.7 mph 68 % 0.0 in
11:32 15.6 °F 9.7 °F 1024.3 in ESE 1.6 mph 6.4 mph 68 % 0.0 in
11:37 15.7 °F 9.4 °F 1024.3 in ENE 4.8 mph 8.0 mph 66 % 0.0 in
11:42 15.8 °F 9.7 °F 1024.3 in NE 3.2 mph 8.0 mph 67 % 0.0 in
11:47 16.0 °F 9.7 °F 1024.3 in Calm   8.0 mph 66 % 0.0 in
11:52 16.2 °F 9.6 °F 1024.3 in East 4.8 mph 6.4 mph 65 % 0.0 in
11:57 16.4 °F 8.9 °F 1024.3 in SE 6.4 mph 8.0 mph 61 % 0.0 in
12:02 16.8 °F 10.0 °F 1024.3 in SE 4.8 mph 9.7 mph 64 % 0.0 in
12:07 17.2 °F 9.4 °F 1024.3 in SSE 1.6 mph 9.7 mph 60 % 0.0 in
12:12 17.2 °F 9.1 °F 1024.3 in Calm   9.7 mph 59 % 0.0 in
12:17 17.4 °F 9.6 °F 1024.3 in ENE 4.8 mph 6.4 mph 60 % 0.0 in
12:22 17.4 °F 10.0 °F 1024.3 in NNE 3.2 mph 6.4 mph 62 % 0.0 in
12:27 17.2 °F 9.1 °F 1024.3 in ENE 1.6 mph 8.0 mph 59 % 0.0 in
12:32 17.3 °F 9.2 °F 1024.3 in East 3.2 mph 8.0 mph 59 % 0.0 in
12:42 17.4 °F 9.3 °F 1024.3 in East 4.8 mph 9.7 mph 59 % 0.0 in
12:47 17.3 °F 9.5 °F 1023.9 in ENE 4.8 mph 9.7 mph 60 % 0.0 in
12:52 17.4 °F 9.3 °F 1023.9 in ENE 6.4 mph 11.3 mph 59 % 0.0 in
13:02 17.6 °F 9.2 °F 1023.9 in NE 4.8 mph 11.3 mph 58 % 0.0 in
13:07 17.8 °F 9.4 °F 1023.9 in ESE 1.6 mph 12.9 mph 58 % 0.0 in
13:12 18.0 °F 9.6 °F 1023.9 in ENE 8.0 mph 12.9 mph 58 % 0.0 in
13:17 18.1 °F 9.4 °F 1023.9 in Calm   12.9 mph 57 % 0.0 in
13:22 18.4 °F 10.0 °F 1023.9 in North 6.4 mph 9.7 mph 58 % 0.0 in
13:27 18.6 °F 9.4 °F 1023.9 in NNE 6.4 mph 11.3 mph 55 % 0.0 in
13:32 18.6 °F 9.6 °F 1023.6 in North 3.2 mph 11.3 mph 56 % 0.0 in
13:37 18.8 °F 9.3 °F 1023.6 in NE 4.8 mph 11.3 mph 54 % 0.0 in
13:42 18.9 °F 9.4 °F 1023.6 in ENE 3.2 mph 11.3 mph 54 % 0.0 in
13:47 19.1 °F 9.0 °F 1023.6 in East 9.7 mph 9.7 mph 52 % 0.0 in
13:52 19.1 °F 9.6 °F 1023.6 in East 6.4 mph 11.3 mph 54 % 0.0 in
13:57 19.0 °F 8.6 °F 1023.2 in NNE 11.3 mph 12.9 mph 51 % 0.0 in
14:02 19.2 °F 9.9 °F 1023.2 in NE 8.0 mph 12.9 mph 55 % 0.0 in
14:07 19.3 °F 9.2 °F 1023.2 in ESE 1.6 mph 12.9 mph 52 % 0.0 in
14:12 19.5 °F 9.1 °F 1023.2 in ENE 6.4 mph 11.3 mph 51 % 0.0 in
14:17 19.5 °F 9.4 °F 1023.2 in East 4.8 mph 11.3 mph 52 % 0.0 in
14:22 19.5 °F 9.4 °F 1023.2 in NNE 4.8 mph 11.3 mph 52 % 0.0 in
14:27 19.6 °F 9.8 °F 1023.2 in NE 3.2 mph 14.5 mph 53 % 0.0 in
14:32 19.8 °F 9.9 °F 1023.2 in East 3.2 mph 14.5 mph 53 % 0.0 in
14:37 19.9 °F 9.8 °F 1023.2 in ENE 4.8 mph 12.9 mph 52 % 0.0 in
14:42 19.9 °F 9.5 °F 1022.9 in NE 6.4 mph 12.9 mph 51 % 0.0 in
14:47 19.9 °F 9.5 °F 1023.2 in NNW 3.2 mph 12.9 mph 51 % 0.0 in
14:52 20.0 °F 9.6 °F 1022.9 in NNE 4.8 mph 12.9 mph 51 % 0.0 in
14:57 20.2 °F 9.7 °F 1022.9 in North 1.6 mph 11.3 mph 51 % 0.0 in
15:02 20.6 °F 9.5 °F 1022.9 in SE 1.6 mph 8.0 mph 49 % 0.0 in
15:07 20.4 °F 9.3 °F 1022.9 in East 3.2 mph 9.7 mph 49 % 0.0 in
15:12 20.5 °F 9.7 °F 1022.9 in East 9.7 mph 9.7 mph 50 % 0.0 in
15:17 20.4 °F 8.7 °F 1022.6 in East 3.2 mph 12.9 mph 47 % 0.0 in
15:22 20.7 °F 9.9 °F 1022.6 in SE 1.6 mph 12.9 mph 50 % 0.0 in
15:27 20.8 °F 9.7 °F 1022.6 in ESE 1.6 mph 12.9 mph 49 % 0.0 in
15:32 20.7 °F 9.3 °F 1022.6 in East 6.4 mph 9.7 mph 48 % 0.0 in
15:37 20.8 °F 9.4 °F 1022.6 in ENE 1.6 mph 11.3 mph 48 % 0.0 in
15:42 20.9 °F 8.5 °F 1022.6 in ENE 3.2 mph 11.3 mph 45 % 0.0 in
15:47 20.9 °F 8.2 °F 1022.6 in NE 3.2 mph 11.3 mph 44 % 0.0 in
15:52 21.1 °F 9.0 °F 1022.6 in ENE 3.2 mph 8.0 mph 46 % 0.0 in
15:57 21.3 °F 9.2 °F 1022.2 in East 6.4 mph 8.0 mph 46 % 0.0 in
16:02 21.4 °F 8.6 °F 1022.2 in NNW 1.6 mph 12.9 mph 44 % 0.0 in
16:07 21.4 °F 8.3 °F 1022.2 in ENE 4.8 mph 12.9 mph 43 % 0.0 in
16:12 21.3 °F 9.2 °F 1022.2 in NE 1.6 mph 12.9 mph 46 % 0.0 in
16:17 21.3 °F 8.9 °F 1022.2 in NNE 6.4 mph 12.9 mph 45 % 0.0 in
16:22 21.2 °F 8.8 °F 1022.2 in ENE 6.4 mph 16.1 mph 45 % 0.0 in
16:27 21.2 °F 8.8 °F 1022.2 in NE 6.4 mph 16.1 mph 45 % 0.0 in
16:32 21.5 °F 8.4 °F 1022.2 in NE 6.4 mph 12.9 mph 43 % 0.0 in
16:37 21.4 °F 8.3 °F 1022.2 in NE 6.4 mph 12.9 mph 43 % 0.0 in
16:42 21.4 °F 8.6 °F 1022.2 in Calm   12.9 mph 44 % 0.0 in
16:47 21.7 °F 8.9 °F 1022.2 in East 4.8 mph 12.9 mph 44 % 0.0 in
16:52 21.6 °F 9.8 °F 1021.9 in ENE 4.8 mph 9.7 mph 47 % 0.0 in
16:57 21.5 °F 8.4 °F 1021.9 in ENE 6.4 mph 12.9 mph 43 % 0.0 in
17:02 21.5 °F 9.4 °F 1021.9 in NNE 9.7 mph 12.9 mph 46 % 0.0 in
17:07 21.6 °F 8.8 °F 1021.9 in NE 4.8 mph 12.9 mph 44 % 0.0 in
17:12 21.6 °F 8.5 °F 1021.9 in NE 4.8 mph 12.9 mph 43 % 0.0 in
17:17 21.7 °F 8.9 °F 1021.9 in NE 4.8 mph 9.7 mph 44 % 0.0 in
17:22 21.7 °F 9.2 °F 1021.9 in NNE 11.3 mph 19.3 mph 45 % 0.0 in
17:27 21.6 °F 8.8 °F 1021.9 in NNE 11.3 mph 19.3 mph 44 % 0.0 in
17:32 21.4 °F 8.0 °F 1021.9 in North 4.8 mph 19.3 mph 42 % 0.0 in
17:37 21.7 °F 8.9 °F 1021.6 in Calm   14.5 mph 44 % 0.0 in
17:42 21.8 °F 9.0 °F 1021.6 in East 8.0 mph 14.5 mph 44 % 0.0 in
17:47 21.8 °F 10.0 °F 1021.6 in East 9.7 mph 11.3 mph 47 % 0.0 in
17:52 21.8 °F 8.7 °F 1021.6 in East 4.8 mph 11.3 mph 43 % 0.0 in
17:57 21.9 °F 9.4 °F 1021.6 in NE 1.6 mph 11.3 mph 45 % 0.0 in
18:02 22.0 °F 9.5 °F 1021.6 in NE 4.8 mph 11.3 mph 45 % 0.0 in
18:07 21.9 °F 8.8 °F 1021.6 in North 4.8 mph 11.3 mph 43 % 0.0 in
18:12 21.8 °F 8.7 °F 1021.6 in ENE 11.3 mph 11.3 mph 43 % 0.0 in
18:17 21.7 °F 8.2 °F 1021.6 in NE 4.8 mph 12.9 mph 42 % 0.0 in
18:22 21.8 °F 8.3 °F 1021.6 in ENE 1.6 mph 12.9 mph 42 % 0.0 in
18:27 21.9 °F 8.8 °F 1021.6 in East 3.2 mph 12.9 mph 43 % 0.0 in
18:32 21.8 °F 9.3 °F 1021.6 in East 6.4 mph 12.9 mph 45 % 0.0 in
18:37 21.6 °F 9.8 °F 1021.6 in ENE 6.4 mph 9.7 mph 47 % 0.0 in
18:42 21.5 °F 9.4 °F 1021.6 in ENE 3.2 mph 9.7 mph 46 % 0.0 in
18:47 21.6 °F 9.5 °F 1021.6 in NE 3.2 mph 8.0 mph 46 % 0.0 in
18:52 21.6 °F 9.2 °F 1021.6 in NNE 4.8 mph 8.0 mph 45 % 0.0 in
18:57 21.6 °F 9.2 °F 1021.6 in NE 6.4 mph 6.4 mph 45 % 0.0 in
19:07 21.4 °F 9.0 °F 1021.6 in NE 8.0 mph 11.3 mph 45 % 0.0 in
19:12 21.3 °F 8.6 °F 1021.6 in NNW 4.8 mph 11.3 mph 44 % 0.0 in
19:17 21.2 °F 9.1 °F 1021.6 in NE 4.8 mph 11.3 mph 46 % 0.0 in
19:22 21.1 °F 9.0 °F 1021.6 in NNE 4.8 mph 11.3 mph 46 % 0.0 in
19:27 21.1 °F 9.3 °F 1021.6 in NE 1.6 mph 11.3 mph 47 % 0.0 in
19:32 20.9 °F 9.2 °F 1021.6 in NNE 6.4 mph 8.0 mph 47 % 0.0 in
19:37 20.8 °F 8.8 °F 1021.6 in NNE 4.8 mph 9.7 mph 46 % 0.0 in
19:42 20.8 °F 8.8 °F 1021.6 in NE 8.0 mph 9.7 mph 46 % 0.0 in
19:47 20.6 °F 8.9 °F 1021.6 in NE 8.0 mph 9.7 mph 47 % 0.0 in
19:52 20.4 °F 8.4 °F 1021.6 in NE 6.4 mph 9.7 mph 46 % 0.0 in
19:57 20.3 °F 8.3 °F 1021.6 in NE 6.4 mph 9.7 mph 46 % 0.0 in
20:02 20.2 °F 8.2 °F 1021.6 in NE 6.4 mph 9.7 mph 46 % 0.0 in
20:07 20.1 °F 8.4 °F 1021.6 in NE 4.8 mph 9.7 mph 47 % 0.0 in
20:12 19.8 °F 8.8 °F 1021.6 in NE 3.2 mph 8.0 mph 49 % 0.0 in
20:17 19.6 °F 8.6 °F 1021.6 in NE 4.8 mph 8.0 mph 49 % 0.0 in
20:22 19.2 °F 8.8 °F 1021.6 in NE 3.2 mph 8.0 mph 51 % 0.0 in
20:27 18.8 °F 9.3 °F 1021.6 in NNE 6.4 mph 8.0 mph 54 % 0.0 in
20:32 18.6 °F 9.6 °F 1021.6 in NE 8.0 mph 9.7 mph 56 % 0.0 in
20:37 18.6 °F 9.6 °F 1021.6 in NE 8.0 mph 11.3 mph 56 % 0.0 in
20:42 18.7 °F 9.7 °F 1021.6 in NE 9.7 mph 11.3 mph 56 % 0.0 in
20:47 18.4 °F 9.5 °F 1021.6 in NNE 6.4 mph 11.3 mph 56 % 0.0 in
20:52 18.2 °F 9.5 °F 1021.9 in NE 8.0 mph 11.3 mph 57 % 0.0 in
20:57 18.1 °F 9.7 °F 1021.9 in NNE 8.0 mph 11.3 mph 58 % 0.0 in
21:02 17.5 °F 9.4 °F 1021.9 in North 6.4 mph 9.7 mph 59 % 0.0 in
21:07 17.0 °F 9.4 °F 1021.9 in North 3.2 mph 9.7 mph 61 % 0.0 in
21:12 16.8 °F 9.5 °F 1021.9 in NNE 3.2 mph 8.0 mph 62 % 0.0 in
21:17 16.5 °F 9.4 °F 1021.9 in NNE 3.2 mph 8.0 mph 63 % 0.0 in
21:22 16.2 °F 9.4 °F 1021.9 in NE 3.2 mph 8.0 mph 64 % 0.0 in
21:27 16.1 °F 9.3 °F 1021.9 in NE 4.8 mph 11.3 mph 64 % 0.0 in
21:32 16.3 °F 9.2 °F 1021.9 in NE 6.4 mph 11.3 mph 63 % 0.0 in
21:42 16.1 °F 9.1 °F 1022.2 in NNE 4.8 mph 11.3 mph 63 % 0.0 in
21:47 16.1 °F 9.1 °F 1022.2 in NNE 3.2 mph 9.7 mph 63 % 0.0 in
21:52 15.8 °F 9.0 °F 1022.2 in NE 3.2 mph 8.0 mph 64 % 0.0 in
21:57 15.6 °F 9.0 °F 1022.2 in North 4.8 mph 8.0 mph 65 % 0.0 in
22:02 15.4 °F 8.9 °F 1022.2 in Calm   8.0 mph 65 % 0.0 in
22:07 15.3 °F 8.8 °F 1022.2 in NNE 1.6 mph 8.0 mph 65 % 0.0 in
22:12 15.3 °F 8.8 °F 1022.2 in NNE 1.6 mph 6.4 mph 65 % 0.0 in
22:17 15.3 °F 8.8 °F 1022.2 in Calm   6.4 mph 65 % 0.0 in
22:22 15.2 °F 8.7 °F 1022.2 in Calm   6.4 mph 65 % 0.0 in
22:27 15.1 °F 8.8 °F 1022.2 in NNW 1.6 mph 3.2 mph 66 % 0.0 in
22:32 14.9 °F 8.6 °F 1022.2 in Calm   3.2 mph 66 % 0.0 in
22:37 14.8 °F 8.7 °F 1022.2 in Calm   3.2 mph 67 % 0.0 in
22:42 14.6 °F 8.5 °F 1022.2 in North 1.6 mph 3.2 mph 67 % 0.0 in
22:52 14.4 °F 8.6 °F 1022.2 in North 3.2 mph 6.4 mph 68 % 0.0 in
22:57 14.4 °F 8.6 °F 1022.2 in NE 3.2 mph 6.4 mph 68 % 0.0 in
23:02 14.3 °F 8.7 °F 1022.2 in Calm   4.8 mph 69 % 0.0 in
23:07 14.2 °F 8.6 °F 1022.2 in ENE 1.6 mph 6.4 mph 69 % 0.0 in
23:12 14.2 °F 8.6 °F 1022.2 in North 3.2 mph 6.4 mph 69 % 0.0 in
23:17 14.1 °F 8.5 °F 1022.2 in NNE 3.2 mph 6.4 mph 69 % 0.0 in
23:22 14.1 °F 8.5 °F 1022.2 in North 6.4 mph 6.4 mph 69 % 0.0 in
23:27 14.1 °F 8.5 °F 1022.2 in NE 6.4 mph 11.3 mph 69 % 0.0 in
23:32 14.1 °F 8.5 °F 1022.2 in NNE 4.8 mph 11.3 mph 69 % 0.0 in
23:37 14.1 °F 8.5 °F 1022.2 in NW 1.6 mph 11.3 mph 69 % 0.0 in
23:42 14.0 °F 8.4 °F 1022.2 in NE 1.6 mph 8.0 mph 69 % 0.0 in
23:47 14.0 °F 8.4 °F 1022.6 in Calm   8.0 mph 69 % 0.0 in
23:52 13.7 °F 8.3 °F 1022.6 in WNW 1.6 mph 8.0 mph 70 % 0.0 in
23:57 13.4 °F 8.2 °F 1022.6 in NW 1.6 mph 6.4 mph 71 % 0.0 in
Meteo18
Compliments of Weather Underground - 4 mb

Script developed by  Jim McMurry - jmcmurry@mwt.net Adapted for the template by  Wim van der Kuil - Leuven-Template.eu

You find our weather info also at:

European Weather Network

Weather Underground

Equipment we use:

Weather-station
Davis Vue

Weather-program
Meteobridge

Weather-server
Raspberry PI 2 B+

Provider
1 and 1

Davis Vue

Meteobridge

Raspberry PI 2 B+

1 and 1